sensor_id;sensor_type;location;lat;lon;timestamp;P1;durP1;ratioP1;P2;durP2;ratioP2
5833;SDS011;2943;48.012;10.968;2023-03-19T00:00:19;10.93;;;7.13;;
5833;SDS011;2943;48.012;10.968;2023-03-19T00:02:49;10.70;;;6.67;;
5833;SDS011;2943;48.012;10.968;2023-03-19T00:05:20;14.47;;;7.57;;
5833;SDS011;2943;48.012;10.968;2023-03-19T00:07:47;14.37;;;7.07;;
5833;SDS011;2943;48.012;10.968;2023-03-19T00:10:15;9.83;;;7.47;;
5833;SDS011;2943;48.012;10.968;2023-03-19T00:12:42;13.37;;;8.07;;
5833;SDS011;2943;48.012;10.968;2023-03-19T00:15:10;10.93;;;7.60;;
5833;SDS011;2943;48.012;10.968;2023-03-19T00:17:38;13.93;;;7.07;;
5833;SDS011;2943;48.012;10.968;2023-03-19T00:20:06;13.13;;;7.07;;
5833;SDS011;2943;48.012;10.968;2023-03-19T00:22:35;10.07;;;6.80;;
5833;SDS011;2943;48.012;10.968;2023-03-19T00:25:04;13.27;;;7.00;;
5833;SDS011;2943;48.012;10.968;2023-03-19T00:27:34;11.40;;;6.53;;
5833;SDS011;2943;48.012;10.968;2023-03-19T00:30:02;12.40;;;6.40;;
5833;SDS011;2943;48.012;10.968;2023-03-19T00:32:29;11.53;;;7.20;;
5833;SDS011;2943;48.012;10.968;2023-03-19T00:34:58;10.60;;;6.50;;
5833;SDS011;2943;48.012;10.968;2023-03-19T00:37:26;9.87;;;6.83;;
5833;SDS011;2943;48.012;10.968;2023-03-19T00:39:58;11.23;;;7.00;;
5833;SDS011;2943;48.012;10.968;2023-03-19T00:42:26;8.47;;;6.30;;
5833;SDS011;2943;48.012;10.968;2023-03-19T00:44:54;9.83;;;6.90;;
5833;SDS011;2943;48.012;10.968;2023-03-19T00:47:21;14.17;;;6.80;;
5833;SDS011;2943;48.012;10.968;2023-03-19T00:49:48;11.10;;;6.70;;
5833;SDS011;2943;48.012;10.968;2023-03-19T00:52:16;11.40;;;6.90;;
5833;SDS011;2943;48.012;10.968;2023-03-19T00:54:43;19.73;;;7.23;;
5833;SDS011;2943;48.012;10.968;2023-03-19T00:57:12;11.50;;;6.40;;
5833;SDS011;2943;48.012;10.968;2023-03-19T00:59:39;13.40;;;6.33;;
5833;SDS011;2943;48.012;10.968;2023-03-19T01:02:07;14.63;;;6.90;;
5833;SDS011;2943;48.012;10.968;2023-03-19T01:04:34;12.40;;;6.90;;
5833;SDS011;2943;48.012;10.968;2023-03-19T01:07:01;12.13;;;6.33;;
5833;SDS011;2943;48.012;10.968;2023-03-19T01:09:28;11.73;;;5.87;;
5833;SDS011;2943;48.012;10.968;2023-03-19T01:11:58;12.13;;;6.27;;
5833;SDS011;2943;48.012;10.968;2023-03-19T01:14:30;13.63;;;7.03;;
5833;SDS011;2943;48.012;10.968;2023-03-19T01:16:59;10.43;;;5.93;;
5833;SDS011;2943;48.012;10.968;2023-03-19T01:19:28;11.17;;;5.97;;
5833;SDS011;2943;48.012;10.968;2023-03-19T01:21:58;10.10;;;5.93;;
5833;SDS011;2943;48.012;10.968;2023-03-19T01:24:28;17.83;;;8.30;;
5833;SDS011;2943;48.012;10.968;2023-03-19T01:26:55;7.53;;;5.33;;
5833;SDS011;2943;48.012;10.968;2023-03-19T01:29:22;8.10;;;5.80;;
5833;SDS011;2943;48.012;10.968;2023-03-19T01:31:50;10.03;;;5.90;;
5833;SDS011;2943;48.012;10.968;2023-03-19T01:34:17;11.20;;;6.50;;
5833;SDS011;2943;48.012;10.968;2023-03-19T01:36:43;10.50;;;6.43;;
5833;SDS011;2943;48.012;10.968;2023-03-19T01:39:11;7.80;;;6.27;;
5833;SDS011;2943;48.012;10.968;2023-03-19T01:41:38;13.10;;;6.20;;
5833;SDS011;2943;48.012;10.968;2023-03-19T01:46:54;9.60;;;6.17;;
5833;SDS011;2943;48.012;10.968;2023-03-19T01:49:23;9.50;;;6.00;;
5833;SDS011;2943;48.012;10.968;2023-03-19T01:51:52;11.37;;;7.20;;
5833;SDS011;2943;48.012;10.968;2023-03-19T01:54:21;14.90;;;6.00;;
5833;SDS011;2943;48.012;10.968;2023-03-19T01:56:50;13.10;;;7.97;;
5833;SDS011;2943;48.012;10.968;2023-03-19T01:59:21;12.90;;;7.00;;
5833;SDS011;2943;48.012;10.968;2023-03-19T02:01:53;14.10;;;8.17;;
5833;SDS011;2943;48.012;10.968;2023-03-19T02:04:24;13.80;;;7.70;;
5833;SDS011;2943;48.012;10.968;2023-03-19T02:06:53;21.67;;;8.27;;
5833;SDS011;2943;48.012;10.968;2023-03-19T02:09:21;13.43;;;7.20;;
5833;SDS011;2943;48.012;10.968;2023-03-19T02:11:50;15.60;;;7.67;;
5833;SDS011;2943;48.012;10.968;2023-03-19T02:14:18;11.53;;;7.60;;
5833;SDS011;2943;48.012;10.968;2023-03-19T02:16:45;13.87;;;8.17;;
5833;SDS011;2943;48.012;10.968;2023-03-19T02:19:15;12.97;;;8.47;;
5833;SDS011;2943;48.012;10.968;2023-03-19T02:21:44;14.00;;;8.67;;
5833;SDS011;2943;48.012;10.968;2023-03-19T02:24:13;12.00;;;7.73;;
5833;SDS011;2943;48.012;10.968;2023-03-19T02:26:44;15.30;;;7.10;;
5833;SDS011;2943;48.012;10.968;2023-03-19T02:29:12;11.00;;;8.20;;
5833;SDS011;2943;48.012;10.968;2023-03-19T02:31:39;11.33;;;7.47;;
5833;SDS011;2943;48.012;10.968;2023-03-19T02:34:06;11.73;;;7.63;;
5833;SDS011;2943;48.012;10.968;2023-03-19T02:37:03;12.50;;;7.47;;
5833;SDS011;2943;48.012;10.968;2023-03-19T02:39:36;12.97;;;7.03;;
5833;SDS011;2943;48.012;10.968;2023-03-19T02:42:11;11.90;;;7.30;;
5833;SDS011;2943;48.012;10.968;2023-03-19T02:44:42;11.60;;;6.97;;
5833;SDS011;2943;48.012;10.968;2023-03-19T02:47:10;11.63;;;6.93;;
5833;SDS011;2943;48.012;10.968;2023-03-19T02:49:38;15.50;;;7.20;;
5833;SDS011;2943;48.012;10.968;2023-03-19T02:52:05;15.50;;;7.40;;
5833;SDS011;2943;48.012;10.968;2023-03-19T02:54:32;10.07;;;7.30;;
5833;SDS011;2943;48.012;10.968;2023-03-19T02:57:00;13.33;;;7.27;;
5833;SDS011;2943;48.012;10.968;2023-03-19T02:59:28;12.93;;;7.90;;
5833;SDS011;2943;48.012;10.968;2023-03-19T03:01:57;10.30;;;7.33;;
5833;SDS011;2943;48.012;10.968;2023-03-19T03:04:25;14.40;;;7.50;;
5833;SDS011;2943;48.012;10.968;2023-03-19T03:06:53;12.30;;;7.03;;
5833;SDS011;2943;48.012;10.968;2023-03-19T03:09:21;15.53;;;6.90;;
5833;SDS011;2943;48.012;10.968;2023-03-19T03:11:48;11.33;;;6.87;;
5833;SDS011;2943;48.012;10.968;2023-03-19T03:14:15;14.20;;;7.07;;
5833;SDS011;2943;48.012;10.968;2023-03-19T03:16:44;11.17;;;6.70;;
5833;SDS011;2943;48.012;10.968;2023-03-19T03:19:11;11.30;;;7.10;;
5833;SDS011;2943;48.012;10.968;2023-03-19T03:21:38;12.83;;;7.50;;
5833;SDS011;2943;48.012;10.968;2023-03-19T03:24:05;14.63;;;7.30;;
5833;SDS011;2943;48.012;10.968;2023-03-19T03:26:33;9.33;;;6.10;;
5833;SDS011;2943;48.012;10.968;2023-03-19T03:29:02;11.90;;;6.93;;
5833;SDS011;2943;48.012;10.968;2023-03-19T03:31:29;11.43;;;7.87;;
5833;SDS011;2943;48.012;10.968;2023-03-19T03:33:58;15.03;;;7.60;;
5833;SDS011;2943;48.012;10.968;2023-03-19T03:36:26;13.40;;;7.97;;
5833;SDS011;2943;48.012;10.968;2023-03-19T03:38:53;15.30;;;7.50;;
5833;SDS011;2943;48.012;10.968;2023-03-19T03:41:20;14.10;;;6.67;;
5833;SDS011;2943;48.012;10.968;2023-03-19T03:43:47;9.83;;;6.63;;
5833;SDS011;2943;48.012;10.968;2023-03-19T03:46:14;13.87;;;7.63;;
5833;SDS011;2943;48.012;10.968;2023-03-19T03:48:41;10.43;;;6.87;;
5833;SDS011;2943;48.012;10.968;2023-03-19T03:51:10;12.63;;;7.53;;
5833;SDS011;2943;48.012;10.968;2023-03-19T03:53:37;12.90;;;7.27;;
5833;SDS011;2943;48.012;10.968;2023-03-19T03:56:06;14.27;;;7.27;;
5833;SDS011;2943;48.012;10.968;2023-03-19T03:58:33;11.70;;;6.73;;
5833;SDS011;2943;48.012;10.968;2023-03-19T04:01:00;10.00;;;6.60;;
5833;SDS011;2943;48.012;10.968;2023-03-19T04:03:27;10.20;;;7.07;;
5833;SDS011;2943;48.012;10.968;2023-03-19T04:05:55;10.93;;;7.43;;
5833;SDS011;2943;48.012;10.968;2023-03-19T04:08:23;12.43;;;7.13;;
5833;SDS011;2943;48.012;10.968;2023-03-19T04:10:50;11.27;;;6.80;;
5833;SDS011;2943;48.012;10.968;2023-03-19T04:13:17;14.73;;;7.20;;
5833;SDS011;2943;48.012;10.968;2023-03-19T04:15:44;11.80;;;7.03;;
5833;SDS011;2943;48.012;10.968;2023-03-19T04:18:12;9.60;;;6.80;;
5833;SDS011;2943;48.012;10.968;2023-03-19T04:20:39;8.73;;;6.67;;
5833;SDS011;2943;48.012;10.968;2023-03-19T04:23:07;10.27;;;6.00;;
5833;SDS011;2943;48.012;10.968;2023-03-19T04:25:35;12.23;;;6.70;;
5833;SDS011;2943;48.012;10.968;2023-03-19T04:28:04;10.00;;;6.17;;
5833;SDS011;2943;48.012;10.968;2023-03-19T04:30:32;7.80;;;6.00;;
5833;SDS011;2943;48.012;10.968;2023-03-19T04:32:59;9.73;;;6.10;;
5833;SDS011;2943;48.012;10.968;2023-03-19T04:35:25;9.53;;;6.50;;
5833;SDS011;2943;48.012;10.968;2023-03-19T04:37:53;8.73;;;6.10;;
5833;SDS011;2943;48.012;10.968;2023-03-19T04:40:20;13.20;;;7.00;;
5833;SDS011;2943;48.012;10.968;2023-03-19T04:42:49;9.63;;;6.30;;
5833;SDS011;2943;48.012;10.968;2023-03-19T04:45:17;10.37;;;6.60;;
5833;SDS011;2943;48.012;10.968;2023-03-19T04:47:45;10.67;;;6.60;;
5833;SDS011;2943;48.012;10.968;2023-03-19T04:50:12;9.07;;;7.00;;
5833;SDS011;2943;48.012;10.968;2023-03-19T04:52:39;12.90;;;6.90;;
5833;SDS011;2943;48.012;10.968;2023-03-19T04:55:06;18.50;;;7.80;;
5833;SDS011;2943;48.012;10.968;2023-03-19T04:57:37;11.80;;;6.90;;
5833;SDS011;2943;48.012;10.968;2023-03-19T05:00:05;10.70;;;7.17;;
5833;SDS011;2943;48.012;10.968;2023-03-19T05:02:34;9.13;;;6.80;;
5833;SDS011;2943;48.012;10.968;2023-03-19T05:05:02;19.57;;;7.00;;
5833;SDS011;2943;48.012;10.968;2023-03-19T05:07:30;16.63;;;7.00;;
5833;SDS011;2943;48.012;10.968;2023-03-19T05:09:57;8.73;;;6.87;;
5833;SDS011;2943;48.012;10.968;2023-03-19T05:12:24;11.93;;;6.30;;
5833;SDS011;2943;48.012;10.968;2023-03-19T05:14:51;8.77;;;5.87;;
5833;SDS011;2943;48.012;10.968;2023-03-19T05:17:19;16.53;;;6.43;;
5833;SDS011;2943;48.012;10.968;2023-03-19T05:19:46;8.50;;;6.37;;
5833;SDS011;2943;48.012;10.968;2023-03-19T05:22:13;7.33;;;6.50;;
5833;SDS011;2943;48.012;10.968;2023-03-19T05:24:41;9.77;;;6.33;;
5833;SDS011;2943;48.012;10.968;2023-03-19T05:27:08;9.67;;;7.20;;
5833;SDS011;2943;48.012;10.968;2023-03-19T05:29:35;8.87;;;6.20;;
5833;SDS011;2943;48.012;10.968;2023-03-19T05:32:02;10.43;;;6.77;;
5833;SDS011;2943;48.012;10.968;2023-03-19T05:34:30;8.30;;;5.83;;
5833;SDS011;2943;48.012;10.968;2023-03-19T05:36:57;7.20;;;5.77;;
5833;SDS011;2943;48.012;10.968;2023-03-19T05:39:24;12.03;;;6.47;;
5833;SDS011;2943;48.012;10.968;2023-03-19T05:41:52;9.57;;;6.53;;
5833;SDS011;2943;48.012;10.968;2023-03-19T05:44:20;13.20;;;6.10;;
5833;SDS011;2943;48.012;10.968;2023-03-19T05:46:47;13.30;;;7.53;;
5833;SDS011;2943;48.012;10.968;2023-03-19T05:49:14;8.50;;;5.80;;
5833;SDS011;2943;48.012;10.968;2023-03-19T05:51:43;9.40;;;6.47;;
5833;SDS011;2943;48.012;10.968;2023-03-19T05:54:09;11.93;;;6.43;;
5833;SDS011;2943;48.012;10.968;2023-03-19T05:56:36;9.83;;;6.30;;
5833;SDS011;2943;48.012;10.968;2023-03-19T05:59:03;7.00;;;6.30;;
5833;SDS011;2943;48.012;10.968;2023-03-19T06:01:30;7.30;;;6.00;;
5833;SDS011;2943;48.012;10.968;2023-03-19T06:03:57;8.03;;;6.03;;
5833;SDS011;2943;48.012;10.968;2023-03-19T06:06:24;7.33;;;6.30;;
5833;SDS011;2943;48.012;10.968;2023-03-19T06:08:52;7.70;;;6.20;;
5833;SDS011;2943;48.012;10.968;2023-03-19T06:11:21;10.97;;;6.40;;
5833;SDS011;2943;48.012;10.968;2023-03-19T06:13:48;8.93;;;6.73;;
5833;SDS011;2943;48.012;10.968;2023-03-19T06:16:14;8.80;;;6.50;;
5833;SDS011;2943;48.012;10.968;2023-03-19T06:18:41;18.37;;;7.13;;
5833;SDS011;2943;48.012;10.968;2023-03-19T06:21:13;10.30;;;7.43;;
5833;SDS011;2943;48.012;10.968;2023-03-19T06:23:40;8.43;;;6.00;;
5833;SDS011;2943;48.012;10.968;2023-03-19T06:26:09;14.67;;;7.07;;
5833;SDS011;2943;48.012;10.968;2023-03-19T06:28:35;16.97;;;7.37;;
5833;SDS011;2943;48.012;10.968;2023-03-19T06:31:03;10.20;;;7.03;;
5833;SDS011;2943;48.012;10.968;2023-03-19T06:33:30;11.77;;;8.20;;
5833;SDS011;2943;48.012;10.968;2023-03-19T06:35:57;12.80;;;7.40;;
5833;SDS011;2943;48.012;10.968;2023-03-19T06:38:25;12.53;;;8.43;;
5833;SDS011;2943;48.012;10.968;2023-03-19T06:40:52;10.50;;;7.90;;
5833;SDS011;2943;48.012;10.968;2023-03-19T06:43:20;9.17;;;7.93;;
5833;SDS011;2943;48.012;10.968;2023-03-19T06:45:47;15.10;;;8.83;;
5833;SDS011;2943;48.012;10.968;2023-03-19T06:48:14;10.77;;;7.87;;
5833;SDS011;2943;48.012;10.968;2023-03-19T06:50:43;13.43;;;8.20;;
5833;SDS011;2943;48.012;10.968;2023-03-19T06:53:11;11.80;;;8.00;;
5833;SDS011;2943;48.012;10.968;2023-03-19T06:55:38;12.30;;;7.67;;
5833;SDS011;2943;48.012;10.968;2023-03-19T06:58:05;10.47;;;7.77;;
5833;SDS011;2943;48.012;10.968;2023-03-19T07:00:33;11.70;;;7.47;;
5833;SDS011;2943;48.012;10.968;2023-03-19T07:03:01;11.20;;;7.80;;
5833;SDS011;2943;48.012;10.968;2023-03-19T07:05:28;9.97;;;7.63;;
5833;SDS011;2943;48.012;10.968;2023-03-19T07:07:55;10.27;;;7.70;;
5833;SDS011;2943;48.012;10.968;2023-03-19T07:10:22;9.10;;;6.83;;
5833;SDS011;2943;48.012;10.968;2023-03-19T07:12:49;13.03;;;8.30;;
5833;SDS011;2943;48.012;10.968;2023-03-19T07:15:16;17.57;;;8.47;;
5833;SDS011;2943;48.012;10.968;2023-03-19T07:17:46;12.67;;;8.80;;
5833;SDS011;2943;48.012;10.968;2023-03-19T07:20:14;13.47;;;8.53;;
5833;SDS011;2943;48.012;10.968;2023-03-19T07:22:41;15.63;;;7.30;;
5833;SDS011;2943;48.012;10.968;2023-03-19T07:25:08;11.30;;;7.30;;
5833;SDS011;2943;48.012;10.968;2023-03-19T07:27:35;11.10;;;8.20;;
5833;SDS011;2943;48.012;10.968;2023-03-19T07:30:02;11.53;;;8.00;;
5833;SDS011;2943;48.012;10.968;2023-03-19T07:32:36;17.67;;;8.13;;
5833;SDS011;2943;48.012;10.968;2023-03-19T07:35:10;13.63;;;8.20;;
5833;SDS011;2943;48.012;10.968;2023-03-19T07:37:40;8.90;;;6.93;;
5833;SDS011;2943;48.012;10.968;2023-03-19T07:40:08;10.30;;;7.17;;
5833;SDS011;2943;48.012;10.968;2023-03-19T07:42:36;13.70;;;7.40;;
5833;SDS011;2943;48.012;10.968;2023-03-19T07:45:03;13.93;;;8.00;;
5833;SDS011;2943;48.012;10.968;2023-03-19T07:47:30;9.73;;;7.20;;
5833;SDS011;2943;48.012;10.968;2023-03-19T07:49:59;9.53;;;7.20;;
5833;SDS011;2943;48.012;10.968;2023-03-19T07:52:28;13.17;;;6.87;;
5833;SDS011;2943;48.012;10.968;2023-03-19T07:54:54;11.13;;;7.20;;
5833;SDS011;2943;48.012;10.968;2023-03-19T07:57:21;8.63;;;6.63;;
5833;SDS011;2943;48.012;10.968;2023-03-19T07:59:50;10.93;;;6.63;;
5833;SDS011;2943;48.012;10.968;2023-03-19T08:02:17;7.25;;;6.20;;
5833;SDS011;2943;48.012;10.968;2023-03-19T08:04:44;11.57;;;7.67;;
5833;SDS011;2943;48.012;10.968;2023-03-19T08:07:12;8.23;;;6.80;;
5833;SDS011;2943;48.012;10.968;2023-03-19T08:09:42;10.43;;;6.87;;
5833;SDS011;2943;48.012;10.968;2023-03-19T08:12:09;8.57;;;6.27;;
5833;SDS011;2943;48.012;10.968;2023-03-19T08:14:38;12.03;;;6.83;;
5833;SDS011;2943;48.012;10.968;2023-03-19T08:17:06;9.37;;;6.93;;
5833;SDS011;2943;48.012;10.968;2023-03-19T08:19:33;8.27;;;6.20;;
5833;SDS011;2943;48.012;10.968;2023-03-19T08:22:00;8.40;;;6.13;;
5833;SDS011;2943;48.012;10.968;2023-03-19T08:24:27;8.00;;;6.37;;
5833;SDS011;2943;48.012;10.968;2023-03-19T08:26:55;7.80;;;7.00;;
5833;SDS011;2943;48.012;10.968;2023-03-19T08:29:22;10.73;;;6.47;;
5833;SDS011;2943;48.012;10.968;2023-03-19T08:31:50;11.37;;;6.33;;
5833;SDS011;2943;48.012;10.968;2023-03-19T08:34:17;7.73;;;6.07;;
5833;SDS011;2943;48.012;10.968;2023-03-19T08:36:44;7.80;;;5.47;;
5833;SDS011;2943;48.012;10.968;2023-03-19T08:39:12;7.00;;;6.13;;
5833;SDS011;2943;48.012;10.968;2023-03-19T08:41:39;6.53;;;5.60;;
5833;SDS011;2943;48.012;10.968;2023-03-19T08:44:10;9.50;;;6.10;;
5833;SDS011;2943;48.012;10.968;2023-03-19T08:46:38;7.87;;;6.00;;
5833;SDS011;2943;48.012;10.968;2023-03-19T08:49:07;7.23;;;5.90;;
5833;SDS011;2943;48.012;10.968;2023-03-19T08:51:34;8.63;;;5.73;;
5833;SDS011;2943;48.012;10.968;2023-03-19T08:54:01;9.47;;;5.97;;
5833;SDS011;2943;48.012;10.968;2023-03-19T08:56:28;10.63;;;5.80;;
5833;SDS011;2943;48.012;10.968;2023-03-19T08:58:56;9.03;;;5.90;;
5833;SDS011;2943;48.012;10.968;2023-03-19T09:01:24;6.13;;;5.23;;
5833;SDS011;2943;48.012;10.968;2023-03-19T09:03:51;7.60;;;5.50;;
5833;SDS011;2943;48.012;10.968;2023-03-19T09:06:18;9.07;;;6.00;;
5833;SDS011;2943;48.012;10.968;2023-03-19T09:08:45;10.27;;;6.50;;
5833;SDS011;2943;48.012;10.968;2023-03-19T09:11:12;8.00;;;5.50;;
5833;SDS011;2943;48.012;10.968;2023-03-19T09:13:40;12.43;;;6.73;;
5833;SDS011;2943;48.012;10.968;2023-03-19T09:16:07;7.33;;;5.67;;
5833;SDS011;2943;48.012;10.968;2023-03-19T09:18:36;7.20;;;6.30;;
5833;SDS011;2943;48.012;10.968;2023-03-19T09:21:03;12.70;;;6.40;;
5833;SDS011;2943;48.012;10.968;2023-03-19T09:23:31;14.33;;;5.90;;
5833;SDS011;2943;48.012;10.968;2023-03-19T09:25:58;7.60;;;5.97;;
5833;SDS011;2943;48.012;10.968;2023-03-19T09:28:25;8.50;;;5.87;;
5833;SDS011;2943;48.012;10.968;2023-03-19T09:30:52;5.30;;;4.80;;
5833;SDS011;2943;48.012;10.968;2023-03-19T09:33:19;5.77;;;4.80;;
5833;SDS011;2943;48.012;10.968;2023-03-19T09:35:52;8.53;;;5.57;;
5833;SDS011;2943;48.012;10.968;2023-03-19T09:38:19;9.00;;;5.43;;
5833;SDS011;2943;48.012;10.968;2023-03-19T09:40:47;8.33;;;5.67;;
5833;SDS011;2943;48.012;10.968;2023-03-19T09:43:28;7.27;;;5.23;;
5833;SDS011;2943;48.012;10.968;2023-03-19T09:46:08;11.00;;;5.90;;
5833;SDS011;2943;48.012;10.968;2023-03-19T09:48:44;5.97;;;4.83;;
5833;SDS011;2943;48.012;10.968;2023-03-19T09:51:16;5.80;;;4.93;;
5833;SDS011;2943;48.012;10.968;2023-03-19T09:53:46;5.30;;;4.80;;
5833;SDS011;2943;48.012;10.968;2023-03-19T09:56:19;6.40;;;5.00;;
5833;SDS011;2943;48.012;10.968;2023-03-19T09:58:46;7.30;;;4.87;;
5833;SDS011;2943;48.012;10.968;2023-03-19T10:01:19;7.37;;;4.70;;
5833;SDS011;2943;48.012;10.968;2023-03-19T10:04:01;6.37;;;4.67;;
5833;SDS011;2943;48.012;10.968;2023-03-19T10:06:57;6.40;;;4.53;;
5833;SDS011;2943;48.012;10.968;2023-03-19T10:09:37;4.93;;;4.43;;
5833;SDS011;2943;48.012;10.968;2023-03-19T10:12:15;6.83;;;4.90;;
5833;SDS011;2943;48.012;10.968;2023-03-19T10:17:42;8.23;;;3.70;;
5833;SDS011;2943;48.012;10.968;2023-03-19T10:20:18;4.77;;;3.53;;
5833;SDS011;2943;48.012;10.968;2023-03-19T10:22:56;7.33;;;4.80;;
5833;SDS011;2943;48.012;10.968;2023-03-19T10:25:37;6.93;;;4.33;;
5833;SDS011;2943;48.012;10.968;2023-03-19T10:28:09;5.90;;;4.07;;
5833;SDS011;2943;48.012;10.968;2023-03-19T10:30:40;4.70;;;4.20;;
5833;SDS011;2943;48.012;10.968;2023-03-19T10:33:13;7.23;;;4.70;;
5833;SDS011;2943;48.012;10.968;2023-03-19T10:35:47;6.90;;;4.10;;
5833;SDS011;2943;48.012;10.968;2023-03-19T10:38:25;6.70;;;4.60;;
5833;SDS011;2943;48.012;10.968;2023-03-19T10:41:00;4.90;;;4.07;;
5833;SDS011;2943;48.012;10.968;2023-03-19T10:43:36;6.13;;;4.63;;
5833;SDS011;2943;48.012;10.968;2023-03-19T10:46:04;7.00;;;4.90;;
5833;SDS011;2943;48.012;10.968;2023-03-19T10:48:38;12.73;;;8.17;;
5833;SDS011;2943;48.012;10.968;2023-03-19T10:51:09;6.57;;;4.10;;
5833;SDS011;2943;48.012;10.968;2023-03-19T10:53:41;4.50;;;4.03;;
5833;SDS011;2943;48.012;10.968;2023-03-19T10:56:15;11.73;;;4.33;;
5833;SDS011;2943;48.012;10.968;2023-03-19T10:58:54;6.83;;;3.80;;
5833;SDS011;2943;48.012;10.968;2023-03-19T11:01:27;8.33;;;3.93;;
5833;SDS011;2943;48.012;10.968;2023-03-19T11:03:58;6.60;;;4.93;;
5833;SDS011;2943;48.012;10.968;2023-03-19T11:06:30;7.40;;;4.40;;
5833;SDS011;2943;48.012;10.968;2023-03-19T11:08:59;7.80;;;3.50;;
5833;SDS011;2943;48.012;10.968;2023-03-19T11:11:32;7.40;;;4.20;;
5833;SDS011;2943;48.012;10.968;2023-03-19T11:14:07;6.47;;;4.07;;
5833;SDS011;2943;48.012;10.968;2023-03-19T11:16:48;7.00;;;4.10;;
5833;SDS011;2943;48.012;10.968;2023-03-19T11:19:21;13.40;;;4.47;;
5833;SDS011;2943;48.012;10.968;2023-03-19T11:21:58;5.30;;;3.97;;
5833;SDS011;2943;48.012;10.968;2023-03-19T11:24:31;5.93;;;4.53;;
5833;SDS011;2943;48.012;10.968;2023-03-19T11:27:01;6.00;;;4.60;;
5833;SDS011;2943;48.012;10.968;2023-03-19T11:29:28;6.20;;;4.60;;
5833;SDS011;2943;48.012;10.968;2023-03-19T11:31:58;6.03;;;4.10;;
5833;SDS011;2943;48.012;10.968;2023-03-19T11:34:35;6.87;;;4.50;;
5833;SDS011;2943;48.012;10.968;2023-03-19T11:37:19;11.07;;;5.13;;
5833;SDS011;2943;48.012;10.968;2023-03-19T11:39:55;5.93;;;4.30;;
5833;SDS011;2943;48.012;10.968;2023-03-19T11:42:43;8.90;;;5.03;;
5833;SDS011;2943;48.012;10.968;2023-03-19T11:45:26;5.30;;;4.33;;
5833;SDS011;2943;48.012;10.968;2023-03-19T11:48:02;8.13;;;4.50;;
5833;SDS011;2943;48.012;10.968;2023-03-19T11:50:44;8.63;;;4.90;;
5833;SDS011;2943;48.012;10.968;2023-03-19T11:53:20;8.10;;;4.67;;
5833;SDS011;2943;48.012;10.968;2023-03-19T11:55:55;5.43;;;4.33;;
5833;SDS011;2943;48.012;10.968;2023-03-19T11:58:42;7.97;;;5.07;;
5833;SDS011;2943;48.012;10.968;2023-03-19T12:01:21;7.70;;;4.75;;
5833;SDS011;2943;48.012;10.968;2023-03-19T12:04:02;6.20;;;4.00;;
5833;SDS011;2943;48.012;10.968;2023-03-19T12:06:48;5.67;;;4.57;;
5833;SDS011;2943;48.012;10.968;2023-03-19T12:09:25;8.40;;;4.50;;
5833;SDS011;2943;48.012;10.968;2023-03-19T12:12:04;8.43;;;5.10;;
5833;SDS011;2943;48.012;10.968;2023-03-19T12:14:45;6.73;;;5.07;;
5833;SDS011;2943;48.012;10.968;2023-03-19T12:17:28;6.73;;;5.37;;
5833;SDS011;2943;48.012;10.968;2023-03-19T12:20:12;8.33;;;5.20;;
5833;SDS011;2943;48.012;10.968;2023-03-19T12:22:51;6.77;;;4.97;;
5833;SDS011;2943;48.012;10.968;2023-03-19T12:25:33;6.43;;;5.27;;
5833;SDS011;2943;48.012;10.968;2023-03-19T12:28:20;11.03;;;5.07;;
5833;SDS011;2943;48.012;10.968;2023-03-19T12:30:54;5.30;;;4.50;;
5833;SDS011;2943;48.012;10.968;2023-03-19T12:33:43;6.50;;;4.73;;
5833;SDS011;2943;48.012;10.968;2023-03-19T12:36:15;6.07;;;4.90;;
5833;SDS011;2943;48.012;10.968;2023-03-19T12:38:45;7.43;;;5.33;;
5833;SDS011;2943;48.012;10.968;2023-03-19T12:41:17;9.27;;;5.20;;
5833;SDS011;2943;48.012;10.968;2023-03-19T12:43:51;8.17;;;4.37;;
5833;SDS011;2943;48.012;10.968;2023-03-19T12:46:22;10.37;;;5.80;;
5833;SDS011;2943;48.012;10.968;2023-03-19T12:48:53;5.50;;;4.90;;
5833;SDS011;2943;48.012;10.968;2023-03-19T12:51:25;7.80;;;5.30;;
5833;SDS011;2943;48.012;10.968;2023-03-19T12:53:55;7.63;;;6.20;;
5833;SDS011;2943;48.012;10.968;2023-03-19T12:56:26;6.07;;;5.40;;
5833;SDS011;2943;48.012;10.968;2023-03-19T12:59:06;8.07;;;5.97;;
5833;SDS011;2943;48.012;10.968;2023-03-19T13:01:39;6.60;;;5.60;;
5833;SDS011;2943;48.012;10.968;2023-03-19T13:04:10;5.63;;;5.07;;
5833;SDS011;2943;48.012;10.968;2023-03-19T13:06:42;10.20;;;4.97;;
5833;SDS011;2943;48.012;10.968;2023-03-19T13:09:15;6.00;;;5.13;;
5833;SDS011;2943;48.012;10.968;2023-03-19T13:11:53;7.27;;;4.50;;
5833;SDS011;2943;48.012;10.968;2023-03-19T13:14:28;10.40;;;4.63;;
5833;SDS011;2943;48.012;10.968;2023-03-19T13:17:01;7.67;;;5.00;;
5833;SDS011;2943;48.012;10.968;2023-03-19T13:19:38;7.40;;;5.10;;
5833;SDS011;2943;48.012;10.968;2023-03-19T13:22:11;6.10;;;4.50;;
5833;SDS011;2943;48.012;10.968;2023-03-19T13:24:43;6.60;;;4.13;;
5833;SDS011;2943;48.012;10.968;2023-03-19T13:27:17;6.73;;;4.93;;
5833;SDS011;2943;48.012;10.968;2023-03-19T13:29:59;7.03;;;5.20;;
5833;SDS011;2943;48.012;10.968;2023-03-19T13:32:37;6.10;;;4.83;;
5833;SDS011;2943;48.012;10.968;2023-03-19T13:35:08;10.53;;;4.70;;
5833;SDS011;2943;48.012;10.968;2023-03-19T13:37:53;5.07;;;4.40;;
5833;SDS011;2943;48.012;10.968;2023-03-19T13:40:36;7.47;;;4.93;;
5833;SDS011;2943;48.012;10.968;2023-03-19T13:43:13;6.23;;;4.53;;
5833;SDS011;2943;48.012;10.968;2023-03-19T13:46:10;7.70;;;4.17;;
5833;SDS011;2943;48.012;10.968;2023-03-19T13:49:01;6.00;;;3.80;;
5833;SDS011;2943;48.012;10.968;2023-03-19T13:51:46;7.57;;;3.73;;
5833;SDS011;2943;48.012;10.968;2023-03-19T13:54:14;6.53;;;4.83;;
5833;SDS011;2943;48.012;10.968;2023-03-19T13:57:02;7.10;;;4.57;;
5833;SDS011;2943;48.012;10.968;2023-03-19T14:03:19;5.77;;;4.70;;
5833;SDS011;2943;48.012;10.968;2023-03-19T14:05:50;5.63;;;4.20;;
5833;SDS011;2943;48.012;10.968;2023-03-19T14:08:19;7.13;;;4.60;;
5833;SDS011;2943;48.012;10.968;2023-03-19T14:10:48;9.10;;;4.10;;
5833;SDS011;2943;48.012;10.968;2023-03-19T14:13:19;5.43;;;3.83;;
5833;SDS011;2943;48.012;10.968;2023-03-19T14:15:52;5.53;;;4.10;;
5833;SDS011;2943;48.012;10.968;2023-03-19T14:18:27;5.10;;;4.20;;
5833;SDS011;2943;48.012;10.968;2023-03-19T14:20:56;4.93;;;4.00;;
5833;SDS011;2943;48.012;10.968;2023-03-19T14:23:28;7.17;;;4.70;;
5833;SDS011;2943;48.012;10.968;2023-03-19T14:25:58;4.73;;;3.57;;
5833;SDS011;2943;48.012;10.968;2023-03-19T14:28:34;5.90;;;3.90;;
5833;SDS011;2943;48.012;10.968;2023-03-19T14:34:03;4.60;;;3.67;;
5833;SDS011;2943;48.012;10.968;2023-03-19T14:36:40;7.10;;;4.27;;
5833;SDS011;2943;48.012;10.968;2023-03-19T14:39:11;5.43;;;3.73;;
5833;SDS011;2943;48.012;10.968;2023-03-19T14:41:47;5.03;;;4.10;;
5833;SDS011;2943;48.012;10.968;2023-03-19T14:47:25;4.43;;;3.30;;
5833;SDS011;2943;48.012;10.968;2023-03-19T14:53:01;4.83;;;3.60;;
5833;SDS011;2943;48.012;10.968;2023-03-19T14:55:38;7.30;;;3.83;;
5833;SDS011;2943;48.012;10.968;2023-03-19T14:58:07;4.77;;;3.63;;
5833;SDS011;2943;48.012;10.968;2023-03-19T15:00:39;11.00;;;4.13;;
5833;SDS011;2943;48.012;10.968;2023-03-19T15:03:13;10.40;;;4.63;;
5833;SDS011;2943;48.012;10.968;2023-03-19T15:05:47;9.60;;;5.00;;
5833;SDS011;2943;48.012;10.968;2023-03-19T15:08:18;8.30;;;4.57;;
5833;SDS011;2943;48.012;10.968;2023-03-19T15:10:50;4.97;;;3.80;;
5833;SDS011;2943;48.012;10.968;2023-03-19T15:13:37;6.37;;;3.73;;
5833;SDS011;2943;48.012;10.968;2023-03-19T15:16:27;6.63;;;3.80;;
5833;SDS011;2943;48.012;10.968;2023-03-19T15:19:02;4.23;;;3.87;;
5833;SDS011;2943;48.012;10.968;2023-03-19T15:21:34;7.27;;;3.90;;
5833;SDS011;2943;48.012;10.968;2023-03-19T15:24:02;5.57;;;3.90;;
5833;SDS011;2943;48.012;10.968;2023-03-19T15:26:31;6.77;;;4.30;;
5833;SDS011;2943;48.012;10.968;2023-03-19T15:29:00;4.83;;;3.20;;
5833;SDS011;2943;48.012;10.968;2023-03-19T15:31:40;6.53;;;3.70;;
5833;SDS011;2943;48.012;10.968;2023-03-19T15:34:16;5.70;;;4.07;;